Time;durP1;ratioP1;P1;durP2;ratioP2;P2;SDS_P1;SDS_P2;PMS_P1;PMS_P2;Temp;Humidity;BMP_temperature;BMP_pressure;BME280_temperature;BME280_humidity;BME280_pressure;Samples;Min_cycle;Max_cycle;Signal;HPM_P1;HPM_P2
2022/03/26 00:00:50;;;;;;;17.08;3.33;;;;;;;;;;4955055;28;20134;-83
2022/03/26 00:03:17;;;;;;;13.32;3.60;;;;;;;;;;4937531;29;20055;-85
2022/03/26 00:05:44;;;;;;;26.88;3.30;;;;;;;;;;4931588;29;20051;-85
2022/03/26 00:08:11;;;;;;;16.63;3.53;;;;;;;;;;4938571;28;20047;-84
2022/03/26 00:10:38;;;;;;;16.33;2.85;;;;;;;;;;4953441;28;20327;-85
2022/03/26 00:13:11;;;;;;;17.98;3.30;;;;;;;;;;4935184;29;20051;-85
2022/03/26 00:15:38;;;;;;;13.60;2.88;;;;;;;;;;4955802;28;20130;-84
2022/03/26 00:18:05;;;;;;;12.85;3.22;;;;;;;;;;4937558;29;20055;-85
2022/03/26 00:20:31;;;;;;;16.27;3.40;;;;;;;;;;4936989;29;20134;-84
2022/03/26 00:22:58;;;;;;;15.23;2.70;;;;;;;;;;4934664;29;20055;-85
2022/03/26 00:25:24;;;;;;;14.80;3.00;;;;;;;;;;4931216;28;20134;-84
2022/03/26 00:27:52;;;;;;;18.70;3.22;;;;;;;;;;4953830;28;20442;-85
2022/03/26 00:30:18;;;;;;;16.25;3.15;;;;;;;;;;4934579;29;20078;-84
2022/03/26 00:32:45;;;;;;;16.73;3.37;;;;;;;;;;4953483;28;20138;-84
2022/03/26 00:35:12;;;;;;;15.40;3.30;;;;;;;;;;4929969;29;20112;-84
2022/03/26 00:37:40;;;;;;;10.70;2.92;;;;;;;;;;4955480;28;20091;-85
2022/03/26 00:40:08;;;;;;;14.23;2.60;;;;;;;;;;4936239;29;20070;-84
2022/03/26 00:42:35;;;;;;;14.02;3.17;;;;;;;;;;4955021;28;20096;-85
2022/03/26 00:45:02;;;;;;;11.48;3.05;;;;;;;;;;4933699;29;20051;-84
2022/03/26 00:47:29;;;;;;;14.75;3.47;;;;;;;;;;4937354;29;20055;-85
2022/03/26 00:49:55;;;;;;;20.25;3.20;;;;;;;;;;4953226;29;20126;-84
2022/03/26 00:52:22;;;;;;;17.83;3.15;;;;;;;;;;4955305;28;20122;-85
2022/03/26 00:54:49;;;;;;;15.07;3.10;;;;;;;;;;4952534;28;20078;-84
2022/03/26 00:57:16;;;;;;;11.95;2.72;;;;;;;;;;4929084;29;20061;-85
2022/03/26 00:59:43;;;;;;;;;;;;;;;;;;4954897;28;20102;-85
2022/03/26 01:02:10;;;;;;;14.73;3.10;;;;;;;;;;4937994;28;19965;-84
2022/03/26 01:04:38;;;;;;;14.30;3.70;;;;;;;;;;4952868;28;20055;-85
2022/03/26 01:07:06;;;;;;;15.40;3.30;;;;;;;;;;4936928;29;20059;-85
2022/03/26 01:09:32;;;;;;;21.98;3.78;;;;;;;;;;4930397;29;20067;-84
2022/03/26 01:11:59;;;;;;;16.77;3.20;;;;;;;;;;4952642;28;20135;-85
2022/03/26 01:14:25;;;;;;;20.42;3.42;;;;;;;;;;4939971;28;20580;-85
2022/03/26 01:16:52;;;;;;;18.42;3.33;;;;;;;;;;4929937;28;20126;-84
2022/03/26 01:19:21;;;;;;;14.50;2.72;;;;;;;;;;4937262;29;20089;-84
2022/03/26 01:21:47;;;;;;;23.92;3.40;;;;;;;;;;4942526;29;20138;-84
2022/03/26 01:24:14;;;;;;;21.35;3.33;;;;;;;;;;4933193;29;20138;-84
2022/03/26 01:26:47;;;;;;;17.85;3.30;;;;;;;;;;4935873;28;20606;-84
2022/03/26 01:29:13;;;;;;;18.20;3.38;;;;;;;;;;4953341;28;20086;-84
2022/03/26 01:31:40;;;;;;;17.15;3.40;;;;;;;;;;4932180;29;20058;-85
2022/03/26 01:34:06;;;;;;;26.23;3.67;;;;;;;;;;4937522;29;20047;-83
2022/03/26 01:36:33;;;;;;;17.27;3.42;;;;;;;;;;4928353;29;20127;-83
2022/03/26 01:38:59;;;;;;;17.88;2.80;;;;;;;;;;4935525;28;20082;-85
2022/03/26 01:41:26;;;;;;;18.55;3.35;;;;;;;;;;4936531;29;20496;-84
2022/03/26 01:43:53;;;;;;;18.73;3.00;;;;;;;;;;4952410;28;20051;-84
2022/03/26 01:46:20;;;;;;;17.88;2.90;;;;;;;;;;4934352;29;20134;-84
2022/03/26 01:48:54;;;;;;;17.05;3.50;;;;;;;;;;4932080;28;20062;-83
2022/03/26 01:51:21;;;;;;;9.70;2.70;;;;;;;;;;4951029;28;20153;-84
2022/03/26 01:53:48;;;;;;;17.80;3.00;;;;;;;;;;4935914;28;20086;-87
2022/03/26 01:56:21;;;;;;;13.73;3.53;;;;;;;;;;4928803;28;20482;-87
2022/03/26 01:58:48;;;;;;;14.25;3.00;;;;;;;;;;4932166;29;20079;-87
2022/03/26 02:01:14;;;;;;;21.45;3.20;;;;;;;;;;4938214;29;20075;-87
2022/03/26 02:03:47;;;;;;;19.45;3.38;;;;;;;;;;4936187;29;20411;-86
2022/03/26 02:06:14;;;;;;;14.65;3.58;;;;;;;;;;4937405;28;20555;-86
2022/03/26 02:08:40;;;;;;;17.67;3.30;;;;;;;;;;4949864;29;20153;-86
2022/03/26 02:11:10;;;;;;;16.67;4.00;;;;;;;;;;4951263;28;20047;-87
2022/03/26 02:13:50;;;;;;;17.95;3.63;;;;;;;;;;4953419;28;20062;-86
2022/03/26 02:16:24;;;;;;;19.55;3.35;;;;;;;;;;4930165;29;20135;-87
2022/03/26 02:18:52;;;;;;;18.58;3.88;;;;;;;;;;4934673;29;20051;-87
2022/03/26 02:21:19;;;;;;;15.57;2.08;;;;;;;;;;4930852;29;20139;-82
2022/03/26 02:23:48;;;;;;;20.27;3.38;;;;;;;;;;4930945;29;20047;-87
2022/03/26 02:26:26;;;;;;;19.65;3.22;;;;;;;;;;4952672;28;20074;-86
2022/03/26 02:28:55;;;;;;;24.35;3.70;;;;;;;;;;4932241;29;20051;-87
2022/03/26 02:31:22;;;;;;;14.05;3.00;;;;;;;;;;4934987;29;20067;-86
2022/03/26 02:33:48;;;;;;;22.63;2.80;;;;;;;;;;4950133;28;20047;-87
2022/03/26 02:36:22;;;;;;;23.30;3.28;;;;;;;;;;4937368;28;20703;-87
2022/03/26 02:38:49;;;;;;;17.60;2.78;;;;;;;;;;4951748;29;20141;-85
2022/03/26 02:41:15;;;;;;;12.77;3.03;;;;;;;;;;4932253;29;20051;-87
2022/03/26 02:43:42;;;;;;;19.70;3.25;;;;;;;;;;4935804;29;20125;-86
2022/03/26 02:46:08;;;;;;;23.42;3.03;;;;;;;;;;4937700;28;20090;-86
2022/03/26 02:48:35;;;;;;;18.05;3.00;;;;;;;;;;4952153;28;20411;-87
2022/03/26 02:51:09;;;;;;;15.32;2.88;;;;;;;;;;4952012;28;20082;-87
2022/03/26 02:53:35;;;;;;;19.35;2.88;;;;;;;;;;4953702;28;20463;-87
2022/03/26 02:56:02;;;;;;;15.45;3.40;;;;;;;;;;4930559;29;20138;-87
2022/03/26 02:58:28;;;;;;;15.98;3.25;;;;;;;;;;4933794;28;20153;-86
2022/03/26 03:00:55;;;;;;;16.52;3.42;;;;;;;;;;4951669;28;20512;-87
2022/03/26 03:03:21;;;;;;;18.95;3.63;;;;;;;;;;4927453;29;20063;-86
2022/03/26 03:05:49;;;;;;;12.50;2.50;;;;;;;;;;4934894;29;20082;-86
2022/03/26 03:08:15;;;;;;;19.38;3.30;;;;;;;;;;4932347;28;20126;-86
2022/03/26 03:10:42;;;;;;;15.05;2.78;;;;;;;;;;4954073;28;20063;-86
2022/03/26 03:13:21;;;;;;;22.40;3.45;;;;;;;;;;4950170;28;20054;-86
2022/03/26 03:15:50;;;;;;;13.45;3.08;;;;;;;;;;4934470;29;20073;-86
2022/03/26 03:18:24;;;;;;;14.38;2.80;;;;;;;;;;4949756;28;20055;-87
2022/03/26 03:20:50;;;;;;;11.43;2.67;;;;;;;;;;4930023;29;20488;-86
2022/03/26 03:23:17;;;;;;;17.90;3.35;;;;;;;;;;4933302;29;20392;-87
2022/03/26 03:25:50;;;;;;;17.63;2.90;;;;;;;;;;4929279;29;20113;-87
2022/03/26 03:28:16;;;;;;;16.05;2.90;;;;;;;;;;4929907;29;20168;-86
2022/03/26 03:30:43;;;;;;;14.63;2.92;;;;;;;;;;4935082;29;20460;-86
2022/03/26 03:33:10;;;;;;;12.77;2.58;;;;;;;;;;4930376;29;20476;-86
2022/03/26 03:35:36;;;;;;;13.80;2.88;;;;;;;;;;4951312;28;20083;-86
2022/03/26 03:38:03;;;;;;;14.98;3.20;;;;;;;;;;4913749;28;20079;-87
2022/03/26 03:40:30;;;;;;;13.77;2.22;;;;;;;;;;4933690;29;20043;-86
2022/03/26 03:42:57;;;;;;;18.80;3.10;;;;;;;;;;4919533;29;20539;-87
2022/03/26 03:45:23;;;;;;;15.63;2.58;;;;;;;;;;4916795;29;20084;-86
2022/03/26 03:47:50;;;;;;;19.63;2.85;;;;;;;;;;4935762;29;20059;-86
2022/03/26 03:50:17;;;;;;;22.90;3.55;;;;;;;;;;4933713;29;20583;-88
2022/03/26 03:52:43;;;;;;;16.73;3.00;;;;;;;;;;4937104;29;20484;-86
2022/03/26 03:55:10;;;;;;;10.27;2.65;;;;;;;;;;4913510;29;20127;-87
2022/03/26 03:57:41;;;;;;;14.23;3.33;;;;;;;;;;4934098;29;20083;-87
2022/03/26 04:00:08;;;;;;;21.17;2.78;;;;;;;;;;4916525;29;20047;-86
2022/03/26 04:02:41;;;;;;;17.73;3.28;;;;;;;;;;4920141;29;20130;-85
2022/03/26 04:05:13;;;;;;;11.18;2.50;;;;;;;;;;4918897;29;20056;-85
2022/03/26 04:07:42;;;;;;;15.73;3.00;;;;;;;;;;4935778;29;20416;-86
2022/03/26 04:10:09;;;;;;;22.27;2.50;;;;;;;;;;4933065;29;20059;-87
2022/03/26 04:12:37;;;;;;;12.60;2.42;;;;;;;;;;4930213;29;20056;-86
2022/03/26 04:15:04;;;;;;;9.35;2.83;;;;;;;;;;4919220;29;20514;-87
2022/03/26 04:17:32;;;;;;;14.57;2.65;;;;;;;;;;4918321;29;20106;-86
2022/03/26 04:19:59;;;;;;;12.35;2.63;;;;;;;;;;4933395;29;20098;-87
2022/03/26 04:22:26;;;;;;;11.50;2.25;;;;;;;;;;4916401;29;20051;-86
2022/03/26 04:24:59;;;;;;;11.50;2.70;;;;;;;;;;4934737;29;20143;-86
2022/03/26 04:27:25;;;;;;;11.90;2.30;;;;;;;;;;4918777;29;20052;-86
2022/03/26 04:29:53;;;;;;;17.95;2.88;;;;;;;;;;4934122;29;20146;-86
2022/03/26 04:32:22;;;;;;;15.18;2.78;;;;;;;;;;4920008;29;20074;-86
2022/03/26 04:34:48;;;;;;;11.90;2.38;;;;;;;;;;4933204;29;20087;-86
2022/03/26 04:37:15;;;;;;;15.10;2.50;;;;;;;;;;4934557;28;20146;-87
2022/03/26 04:39:55;;;;;;;10.93;2.22;;;;;;;;;;4918044;29;20079;-87
2022/03/26 04:42:27;;;;;;;12.30;3.15;;;;;;;;;;4934421;29;20393;-87
2022/03/26 04:45:01;;;;;;;11.13;2.22;;;;;;;;;;4918510;29;20050;-86
2022/03/26 04:47:28;;;;;;;7.18;2.05;;;;;;;;;;4915659;29;20056;-86
2022/03/26 04:49:54;;;;;;;7.75;1.95;;;;;;;;;;4918259;29;20528;-86
2022/03/26 04:52:25;;;;;;;;;;;;;;;;;;4917176;29;20143;-86
2022/03/26 04:54:53;;;;;;;6.47;1.70;;;;;;;;;;4924825;29;20316;-87
2022/03/26 04:57:19;;;;;;;5.90;1.80;;;;;;;;;;4915228;29;20069;-86
2022/03/26 04:59:52;;;;;;;7.28;1.60;;;;;;;;;;4918291;29;20355;-87
2022/03/26 05:02:21;;;;;;;5.68;1.40;;;;;;;;;;4934737;29;20111;-86
2022/03/26 05:04:47;;;;;;;8.30;1.52;;;;;;;;;;4935163;29;20077;-86
2022/03/26 05:09:59;;;;;;;4.07;1.48;;;;;;;;;;4936171;29;20345;-87
2022/03/26 05:12:29;;;;;;;5.78;1.60;;;;;;;;;;4935498;29;20056;-86
2022/03/26 05:14:56;;;;;;;5.82;1.90;;;;;;;;;;4934524;29;20142;-86
2022/03/26 05:17:22;;;;;;;7.07;1.63;;;;;;;;;;4917679;29;20079;-86
2022/03/26 05:19:55;;;;;;;3.40;1.10;;;;;;;;;;4919316;29;20126;-86
2022/03/26 05:22:21;;;;;;;6.90;1.63;;;;;;;;;;4914494;29;20076;-86
2022/03/26 05:24:48;;;;;;;2.97;1.15;;;;;;;;;;4915343;29;20583;-87
2022/03/26 05:27:20;;;;;;;3.95;1.20;;;;;;;;;;4918878;29;20142;-87
2022/03/26 05:29:46;;;;;;;4.17;1.20;;;;;;;;;;4934691;29;20138;-84
2022/03/26 05:32:13;;;;;;;4.93;1.30;;;;;;;;;;4921980;29;20098;-86
2022/03/26 05:34:39;;;;;;;8.82;1.42;;;;;;;;;;4917984;29;20153;-87
2022/03/26 05:37:06;;;;;;;7.18;1.60;;;;;;;;;;4924190;28;20139;-86
2022/03/26 05:39:33;;;;;;;4.50;1.48;;;;;;;;;;4932188;29;20436;-87
2022/03/26 05:42:00;;;;;;;7.20;1.40;;;;;;;;;;4934554;29;20075;-86
2022/03/26 05:44:26;;;;;;;3.47;1.20;;;;;;;;;;4954028;28;20130;-84
2022/03/26 05:46:53;;;;;;;7.22;1.63;;;;;;;;;;4933101;29;20086;-87
2022/03/26 05:49:21;;;;;;;1.98;1.00;;;;;;;;;;4935388;29;20047;-86
2022/03/26 05:51:48;;;;;;;4.22;1.63;;;;;;;;;;4937157;29;20059;-86
2022/03/26 05:54:14;;;;;;;3.38;1.67;;;;;;;;;;4953840;28;20571;-86
2022/03/26 05:56:51;;;;;;;3.63;0.95;;;;;;;;;;4931093;29;20122;-86
2022/03/26 05:59:20;;;;;;;5.63;1.30;;;;;;;;;;4933128;28;20482;-86
2022/03/26 06:01:48;;;;;;;5.28;1.38;;;;;;;;;;4934178;29;20141;-86
2022/03/26 06:04:14;;;;;;;4.40;1.23;;;;;;;;;;4949152;28;20109;-87
2022/03/26 06:06:41;;;;;;;3.67;1.40;;;;;;;;;;4935919;29;20074;-87
2022/03/26 06:09:14;;;;;;;4.18;1.20;;;;;;;;;;4949601;28;20143;-87
2022/03/26 06:14:31;;;;;;;6.07;1.48;;;;;;;;;;4952012;28;20475;-87
2022/03/26 06:16:58;;;;;;;5.22;1.73;;;;;;;;;;4929875;29;20078;-86
2022/03/26 06:19:25;;;;;;;4.55;1.42;;;;;;;;;;4938987;28;20089;-87
2022/03/26 06:21:53;;;;;;;8.13;2.10;;;;;;;;;;4933622;29;20055;-87
2022/03/26 06:24:20;;;;;;;4.80;1.30;;;;;;;;;;4935425;29;20151;-86
2022/03/26 06:26:48;;;;;;;4.03;1.33;;;;;;;;;;4931537;29;20083;-87
2022/03/26 06:29:16;;;;;;;6.57;1.90;;;;;;;;;;4950640;28;20089;-86
2022/03/26 06:31:43;;;;;;;5.25;1.73;;;;;;;;;;4931837;28;20411;-86
2022/03/26 06:34:11;;;;;;;5.38;1.33;;;;;;;;;;4949827;28;20130;-86
2022/03/26 06:36:41;;;;;;;7.07;1.25;;;;;;;;;;4936173;29;20558;-86
2022/03/26 06:39:07;;;;;;;3.05;1.20;;;;;;;;;;4934979;29;20150;-83
2022/03/26 06:41:41;;;;;;;4.43;1.20;;;;;;;;;;4934803;29;20126;-84
2022/03/26 06:44:08;;;;;;;6.30;1.65;;;;;;;;;;4933262;29;20055;-84
2022/03/26 06:46:35;;;;;;;4.13;1.25;;;;;;;;;;4952363;28;20515;-84
2022/03/26 06:49:02;;;;;;;6.75;1.92;;;;;;;;;;4947633;28;20077;-84
2022/03/26 06:51:29;;;;;;;5.35;1.58;;;;;;;;;;4931977;29;20143;-84
2022/03/26 06:53:55;;;;;;;5.38;1.35;;;;;;;;;;4949297;28;20075;-84
2022/03/26 06:56:22;;;;;;;2.25;1.25;;;;;;;;;;4931243;29;20571;-84
2022/03/26 06:58:55;;;;;;;2.45;1.02;;;;;;;;;;4936396;28;20083;-83
2022/03/26 07:01:22;;;;;;;3.25;1.08;;;;;;;;;;4934532;29;20083;-84
2022/03/26 07:03:48;;;;;;;3.17;1.20;;;;;;;;;;4950833;28;20453;-84
2022/03/26 07:06:23;;;;;;;4.07;1.38;;;;;;;;;;4936165;29;20549;-84
2022/03/26 07:08:49;;;;;;;7.70;1.27;;;;;;;;;;4952151;28;20067;-84
2022/03/26 07:11:16;;;;;;;3.50;1.20;;;;;;;;;;4927099;29;20063;-84
2022/03/26 07:13:49;;;;;;;6.72;1.50;;;;;;;;;;4949636;28;20341;-83
2022/03/26 07:16:15;;;;;;;4.47;1.10;;;;;;;;;;4936914;29;20078;-83
2022/03/26 07:18:42;;;;;;;3.55;1.20;;;;;;;;;;4956263;28;20143;-84
2022/03/26 07:21:10;;;;;;;4.18;1.20;;;;;;;;;;4938863;29;20581;-84
2022/03/26 07:23:37;;;;;;;2.90;1.27;;;;;;;;;;4953852;28;20061;-83
2022/03/26 07:26:03;;;;;;;3.00;1.00;;;;;;;;;;4953265;28;20166;-83
2022/03/26 07:28:30;;;;;;;4.28;0.95;;;;;;;;;;4954098;28;20083;-83
2022/03/26 07:30:57;;;;;;;3.50;0.97;;;;;;;;;;4938256;29;20134;-84
2022/03/26 07:33:23;;;;;;;2.42;1.00;;;;;;;;;;4952763;28;20378;-83
2022/03/26 07:35:50;;;;;;;4.53;1.13;;;;;;;;;;4938135;29;20078;-83
2022/03/26 07:38:16;;;;;;;3.55;1.10;;;;;;;;;;4938163;28;20512;-84
2022/03/26 07:40:43;;;;;;;4.40;1.00;;;;;;;;;;4930217;28;20481;-83
2022/03/26 07:43:09;;;;;;;3.53;1.00;;;;;;;;;;4955714;28;20093;-84
2022/03/26 07:45:36;;;;;;;1.23;0.63;;;;;;;;;;4952777;28;20047;-85
2022/03/26 07:48:09;;;;;;;0.90;0.63;;;;;;;;;;4953788;29;20419;-86
2022/03/26 07:50:36;;;;;;;6.40;1.20;;;;;;;;;;4953322;28;20141;-84
2022/03/26 07:53:03;;;;;;;2.88;1.15;;;;;;;;;;4953437;28;20143;-86
2022/03/26 07:55:29;;;;;;;2.53;1.25;;;;;;;;;;4951721;28;20158;-85
2022/03/26 07:57:56;;;;;;;5.55;1.10;;;;;;;;;;4955946;28;20121;-85
2022/03/26 08:00:22;;;;;;;2.45;0.82;;;;;;;;;;4952509;29;20051;-85
2022/03/26 08:02:50;;;;;;;3.58;0.93;;;;;;;;;;4937088;29;20054;-85
2022/03/26 08:05:17;;;;;;;2.47;1.00;;;;;;;;;;4955543;28;20047;-85
2022/03/26 08:07:43;;;;;;;3.88;1.17;;;;;;;;;;4935319;29;20420;-85
2022/03/26 08:10:16;;;;;;;2.83;0.95;;;;;;;;;;4930926;29;20082;-83
2022/03/26 08:12:43;;;;;;;3.37;0.90;;;;;;;;;;4938867;29;20047;-85
2022/03/26 08:15:09;;;;;;;2.05;1.05;;;;;;;;;;4934364;29;20055;-85
2022/03/26 08:17:37;;;;;;;;;;;;;;;;;;4932769;29;20082;-84
2022/03/26 08:20:04;;;;;;;5.35;0.93;;;;;;;;;;4938416;29;19922;-85
2022/03/26 08:22:30;;;;;;;1.70;0.80;;;;;;;;;;4937903;29;20139;-85
2022/03/26 08:24:57;;;;;;;3.90;0.82;;;;;;;;;;4938359;29;20066;-84
2022/03/26 08:27:23;;;;;;;2.70;1.20;;;;;;;;;;4936727;29;20052;-83
2022/03/26 08:29:50;;;;;;;5.28;1.20;;;;;;;;;;4930710;29;20138;-84
2022/03/26 08:32:24;;;;;;;1.65;0.70;;;;;;;;;;4934567;28;20062;-84
2022/03/26 08:34:51;;;;;;;2.10;0.68;;;;;;;;;;4955054;28;20142;-84
2022/03/26 08:37:17;;;;;;;3.38;1.05;;;;;;;;;;4929308;28;20154;-84
2022/03/26 08:39:44;;;;;;;1.70;0.77;;;;;;;;;;4933049;29;20139;-83
2022/03/26 08:42:10;;;;;;;4.00;1.08;;;;;;;;;;4950422;28;20070;-83
2022/03/26 08:44:37;;;;;;;2.00;0.90;;;;;;;;;;4934823;29;20082;-83
2022/03/26 08:47:05;;;;;;;3.42;1.13;;;;;;;;;;4936789;28;20455;-83
2022/03/26 08:49:36;;;;;;;2.35;0.75;;;;;;;;;;4950998;28;20078;-83
2022/03/26 08:52:03;;;;;;;2.85;0.90;;;;;;;;;;4947976;28;20440;-84
2022/03/26 08:54:30;;;;;;;2.45;0.88;;;;;;;;;;4950279;28;20086;-83
2022/03/26 08:56:56;;;;;;;1.85;0.77;;;;;;;;;;4952504;29;20603;-84
2022/03/26 08:59:23;;;;;;;5.10;1.15;;;;;;;;;;4942593;28;20138;-84
2022/03/26 09:01:50;;;;;;;2.13;1.13;;;;;;;;;;4933892;29;20079;-84
2022/03/26 09:04:17;;;;;;;2.75;1.05;;;;;;;;;;4949636;28;20507;-84
2022/03/26 09:06:44;;;;;;;2.40;0.80;;;;;;;;;;4937143;29;20051;-83
2022/03/26 09:09:17;;;;;;;2.63;1.10;;;;;;;;;;4925361;29;20134;-83
2022/03/26 09:11:44;;;;;;;3.78;0.80;;;;;;;;;;4936763;28;20154;-84
2022/03/26 09:14:13;;;;;;;2.92;1.20;;;;;;;;;;4954041;28;20058;-83
2022/03/26 09:16:46;;;;;;;2.50;0.80;;;;;;;;;;4949376;28;20138;-84
2022/03/26 09:19:13;;;;;;;2.33;0.93;;;;;;;;;;4933947;28;20054;-84
2022/03/26 09:21:40;;;;;;;2.90;0.80;;;;;;;;;;4950106;28;20539;-83
2022/03/26 09:24:16;;;;;;;3.30;1.20;;;;;;;;;;4950385;28;20122;-83
2022/03/26 09:26:43;;;;;;;2.97;1.30;;;;;;;;;;4954331;28;20138;-83
2022/03/26 09:29:09;;;;;;;2.33;1.00;;;;;;;;;;4953884;28;20166;-83
2022/03/26 09:31:36;;;;;;;4.15;0.98;;;;;;;;;;4951500;28;20130;-84
2022/03/26 09:34:03;;;;;;;4.82;1.83;;;;;;;;;;4935120;28;20082;-83
2022/03/26 09:36:31;;;;;;;2.58;1.00;;;;;;;;;;4951825;28;20056;-83
2022/03/26 09:38:59;;;;;;;3.95;1.60;;;;;;;;;;4948598;28;20059;-82
2022/03/26 09:41:27;;;;;;;6.80;1.35;;;;;;;;;;4939120;28;20492;-82
2022/03/26 09:43:54;;;;;;;2.67;1.23;;;;;;;;;;4933856;29;20078;-83
2022/03/26 09:46:23;;;;;;;3.75;1.13;;;;;;;;;;4950582;28;20138;-82
2022/03/26 09:48:50;;;;;;;3.85;0.98;;;;;;;;;;4935190;29;20508;-83
2022/03/26 09:51:21;;;;;;;3.90;1.73;;;;;;;;;;4951947;28;20058;-83
2022/03/26 09:53:49;;;;;;;2.35;0.85;;;;;;;;;;4929150;28;20078;-83
2022/03/26 09:56:15;;;;;;;3.47;1.27;;;;;;;;;;4927257;29;20134;-83
2022/03/26 09:58:42;;;;;;;3.15;1.17;;;;;;;;;;4935529;28;20081;-82
2022/03/26 10:01:09;;;;;;;2.25;1.10;;;;;;;;;;4942552;28;20135;-84
2022/03/26 10:03:39;;;;;;;4.60;0.95;;;;;;;;;;4943864;28;20083;-83
2022/03/26 10:06:10;;;;;;;1.23;0.88;;;;;;;;;;4928077;29;20146;-83
2022/03/26 10:08:41;;;;;;;3.28;1.10;;;;;;;;;;4923018;29;20862;-84
2022/03/26 10:11:19;;;;;;;2.33;1.02;;;;;;;;;;4933196;28;20063;-84
2022/03/26 10:13:48;;;;;;;2.20;0.98;;;;;;;;;;4919250;28;20067;-84
2022/03/26 10:16:15;;;;;;;3.70;1.40;;;;;;;;;;4936421;28;20043;-83
2022/03/26 10:18:43;;;;;;;5.22;1.58;;;;;;;;;;4938443;28;20059;-83
2022/03/26 10:21:12;;;;;;;2.78;1.15;;;;;;;;;;4919961;28;20686;-83
2022/03/26 10:23:49;;;;;;;4.80;1.10;;;;;;;;;;4939788;28;20138;-82
2022/03/26 10:26:23;;;;;;;1.75;1.08;;;;;;;;;;4943425;28;20143;-82
2022/03/26 10:28:53;;;;;;;3.47;0.98;;;;;;;;;;4944596;28;20134;-83
2022/03/26 10:34:12;;;;;;;2.27;1.03;;;;;;;;;;4943492;28;20049;-84
2022/03/26 10:36:40;;;;;;;2.25;1.10;;;;;;;;;;4927508;29;20070;-84
2022/03/26 10:39:07;;;;;;;;;;;;;;;;;;4926431;29;20571;-83
2022/03/26 10:41:34;;;;;;;3.40;1.27;;;;;;;;;;4930056;29;20466;-83
2022/03/26 10:44:10;;;;;;;2.72;0.80;;;;;;;;;;4928443;29;20105;-83
2022/03/26 10:47:00;;;;;;;2.95;0.93;;;;;;;;;;4944695;28;20150;-84
2022/03/26 10:49:29;;;;;;;4.05;1.20;;;;;;;;;;4924430;28;20103;-84
2022/03/26 10:51:57;;;;;;;4.55;1.02;;;;;;;;;;4949751;28;20078;-83
2022/03/26 10:54:23;;;;;;;;;;;;;;;;;;4950606;28;20150;-83
2022/03/26 10:56:50;;;;;;;;;;;;;;;;;;4953256;28;19965;-84
2022/03/26 10:59:16;;;;;;;;;;;;;;;;;;4950759;28;19969;-84
2022/03/26 11:01:43;;;;;;;;;;;;;;;;;;4930340;28;19960;-84
2022/03/26 11:04:16;;;;;;;;;;;;;;;;;;4952116;28;20022;-82
2022/03/26 11:06:42;;;;;;;;;;;;;;;;;;4950794;28;20457;-84
2022/03/26 11:09:09;;;;;;;;;;;;;;;;;;4950273;28;19961;-84
2022/03/26 11:11:42;;;;;;;;;;;;;;;;;;4949041;28;19969;-84
2022/03/26 11:14:08;;;;;;;;;;;;;;;;;;4925733;28;19965;-83
2022/03/26 11:16:35;;;;;;;;;;;;;;;;;;4930052;29;19926;-84
2022/03/26 11:19:08;;;;;;;;;;;;;;;;;;4948938;28;20552;-84
2022/03/26 11:21:35;;;;;;;;;;;;;;;;;;4935970;28;19966;-84
2022/03/26 11:24:01;;;;;;;;;;;;;;;;;;4924424;28;20391;-84
2022/03/26 11:26:27;;;;;;;;;;;;;;;;;;4923973;28;20001;-84
2022/03/26 11:28:54;;;;;;;;;;;;;;;;;;4941686;28;20465;-83
2022/03/26 11:31:20;;;;;;;;;;;;;;;;;;4945908;28;19998;-84
2022/03/26 11:33:53;;;;;;;;;;;;;;;;;;4949869;29;19922;-84
2022/03/26 11:36:19;;;;;;;;;;;;;;;;;;4948723;28;20529;-84
2022/03/26 11:38:46;;;;;;;;;;;;;;;;;;4935501;28;20474;-84
2022/03/26 11:41:22;;;;;;;;;;;;;;;;;;4950790;28;19972;-84
2022/03/26 11:43:49;;;;;;;;;;;;;;;;;;4932051;28;19969;-84
2022/03/26 11:51:52;;;;;;;;;;;;;;;;;;4948077;28;20005;-84
2022/03/26 11:54:20;;;;;;;;;;;;;;;;;;4945670;28;20497;-84
2022/03/26 11:56:47;;;;;;;;;;;;;;;;;;4933987;29;19952;-83
2022/03/26 11:59:13;;;;;;;;;;;;;;;;;;4931599;28;19958;-83
2022/03/26 12:01:46;;;;;;;;;;;;;;;;;;4933974;28;19953;-85
2022/03/26 12:04:13;;;;;;;;;;;;;;;;;;4938437;29;19965;-84
2022/03/26 12:06:39;;;;;;;;;;;;;;;;;;4953474;28;20449;-84
2022/03/26 12:09:12;;;;;;;;;;;;;;;;;;4936693;28;19926;-84
2022/03/26 12:11:38;;;;;;;;;;;;;;;;;;4950823;28;19931;-83
2022/03/26 12:14:05;;;;;;;;;;;;;;;;;;4935802;29;19965;-84
2022/03/26 12:16:32;;;;;;;;;;;;;;;;;;4937663;29;19997;-85
2022/03/26 12:18:59;;;;;;;;;;;;;;;;;;4937558;29;20009;-84
2022/03/26 12:21:25;;;;;;;;;;;;;;;;;;4936777;29;20013;-85
2022/03/26 12:23:58;;;;;;;;;;;;;;;;;;4937994;29;19973;-83
2022/03/26 12:26:24;;;;;;;;;;;;;;;;;;4951938;28;19988;-84
2022/03/26 12:28:51;;;;;;;;;;;;;;;;;;4947455;28;19973;-84
2022/03/26 12:31:19;;;;;;;;;;;;;;;;;;4936669;28;20024;-85
2022/03/26 12:33:46;;;;;;;;;;;;;;;;;;4935978;28;19927;-82
2022/03/26 12:36:12;;;;;;;;;;;;;;;;;;4933489;28;19977;-84
2022/03/26 12:38:43;;;;;;;;;;;;;;;;;;4936262;28;19932;-84
2022/03/26 12:41:10;;;;;;;;;;;;;;;;;;4935232;28;19922;-85
2022/03/26 12:43:36;;;;;;;;;;;;;;;;;;4937798;28;20445;-85
2022/03/26 12:46:04;;;;;;;;;;;;;;;;;;4936780;28;20040;-84
2022/03/26 12:48:31;;;;;;;;;;;;;;;;;;4921948;29;20391;-84
2022/03/26 12:50:57;;;;;;;;;;;;;;;;;;4947236;28;19923;-83
2022/03/26 12:53:24;;;;;;;;;;;;;;;;;;4928070;28;20468;-85
2022/03/26 12:55:50;;;;;;;;;;;;;;;;;;4949636;29;19923;-84
2022/03/26 13:01:02;;;;;;;;;;;;;;;;;;4951663;28;20028;-86
2022/03/26 13:03:29;;;;;;;;;;;;;;;;;;4936236;28;20294;-83
2022/03/26 13:05:56;;;;;;;;;;;;;;;;;;4950860;29;20584;-83
2022/03/26 13:08:26;;;;;;;;;;;;;;;;;;4934581;28;20371;-84
2022/03/26 13:10:52;;;;;;;;;;;;;;;;;;4937578;29;20369;-85
2022/03/26 13:13:18;;;;;;;;;;;;;;;;;;4934074;29;19930;-83
2022/03/26 13:15:51;;;;;;;;;;;;;;;;;;4952338;28;19930;-84
2022/03/26 13:18:17;;;;;;;;;;;;;;;;;;4949099;28;19973;-83
2022/03/26 13:20:44;;;;;;;;;;;;;;;;;;4935597;28;19923;-84
2022/03/26 13:23:17;;;;;;;;;;;;;;;;;;4936432;29;20012;-84
2022/03/26 13:25:45;;;;;;;;;;;;;;;;;;4934887;29;19961;-85
2022/03/26 13:28:12;;;;;;;;;;;;;;;;;;4935553;29;19962;-84
2022/03/26 13:30:39;;;;;;;;;;;;;;;;;;4938033;29;20370;-84
2022/03/26 13:33:06;;;;;;;;;;;;;;;;;;4950239;29;19965;-84
2022/03/26 13:35:32;;;;;;;;;;;;;;;;;;4951943;28;20017;-84
2022/03/26 13:37:59;;;;;;;;;;;;;;;;;;4947087;28;20001;-84
2022/03/26 13:40:31;;;;;;;;;;;;;;;;;;4935340;29;19922;-84
2022/03/26 13:43:00;;;;;;;;;;;;;;;;;;4915517;29;19929;-84
2022/03/26 13:45:26;;;;;;;;;;;;;;;;;;4917874;29;19973;-83
2022/03/26 13:47:53;;;;;;;;;;;;;;;;;;4916932;29;20918;-84
2022/03/26 13:50:19;;;;;;;;;;;;;;;;;;4935404;29;19962;-84
2022/03/26 13:52:53;;;;;;;;;;;;;;;;;;4918930;29;19996;-84
2022/03/26 13:55:20;;;;;;;;;;;;;;;;;;4922421;29;20300;-83
2022/03/26 13:57:46;;;;;;;;;;;;;;;;;;4916112;29;19930;-83
2022/03/26 14:00:21;;;;;;;;;;;;;;;;;;4909057;29;20014;-83
2022/03/26 14:02:47;;;;;;;;;;;;;;;;;;4927031;29;20447;-83
2022/03/26 14:05:14;;;;;;;;;;;;;;;;;;4916402;29;20292;-84
2022/03/26 14:07:45;;;;;;;;;;;;;;;;;;4918847;29;20390;-83
2022/03/26 14:10:12;;;;;;;;;;;;;;;;;;4931957;29;20363;-84
2022/03/26 14:12:38;;;;;;;;;;;;;;;;;;4931579;29;19934;-84
2022/03/26 14:15:05;;;;;;;;;;;;;;;;;;4918617;29;20037;-84
2022/03/26 14:17:31;;;;;;;;;;;;;;;;;;4934009;29;19980;-84
2022/03/26 14:19:58;;;;;;;;;;;;;;;;;;4933714;29;19946;-84
2022/03/26 14:22:25;;;;;;;;;;;;;;;;;;4934941;29;19966;-84
2022/03/26 14:24:51;;;;;;;;;;;;;;;;;;4917840;29;20397;-85
2022/03/26 14:27:18;;;;;;;;;;;;;;;;;;4932152;29;19962;-84
2022/03/26 14:29:45;;;;;;;;;;;;;;;;;;4932238;29;20021;-84
2022/03/26 14:32:13;;;;;;;;;;;;;;;;;;4934370;29;19922;-83
2022/03/26 14:34:40;;;;;;;;;;;;;;;;;;4931834;29;19965;-85
2022/03/26 14:37:13;;;;;;;;;;;;;;;;;;4935714;29;19965;-84
2022/03/26 14:39:39;;;;;;;;;;;;;;;;;;4921013;28;20518;-85
2022/03/26 14:42:08;;;;;;;;;;;;;;;;;;4932477;29;20438;-84
2022/03/26 14:44:37;;;;;;;;;;;;;;;;;;4919042;29;19929;-84
2022/03/26 14:47:03;;;;;;;;;;;;;;;;;;4931889;29;20558;-84
2022/03/26 14:49:32;;;;;;;;;;;;;;;;;;4916383;29;20330;-84
2022/03/26 14:51:59;;;;;;;;;;;;;;;;;;4916310;29;19961;-84
2022/03/26 14:54:25;;;;;;;;;;;;;;;;;;4920180;29;20124;-84
2022/03/26 14:56:52;;;;;;;;;;;;;;;;;;4914926;29;20017;-84
2022/03/26 14:59:20;;;;;;;;;;;;;;;;;;4932339;29;20036;-84
2022/03/26 15:01:46;;;;;;;;;;;;;;;;;;4933196;29;19926;-85
2022/03/26 15:04:15;;;;;;;;;;;;;;;;;;4915670;29;19933;-84
2022/03/26 15:06:43;;;;;;;;;;;;;;;;;;4932572;29;19969;-84
2022/03/26 15:09:10;;;;;;;;;;;;;;;;;;4916753;29;19969;-84
2022/03/26 15:11:38;;;;;;;;;;;;;;;;;;4934432;29;20330;-83
2022/03/26 15:14:06;;;;;;;;;;;;;;;;;;4932655;29;19923;-83
2022/03/26 15:16:32;;;;;;;;;;;;;;;;;;4933665;29;19922;-84
2022/03/26 15:18:59;;;;;;;;;;;;;;;;;;4932889;29;20314;-84
2022/03/26 15:21:32;;;;;;;;;;;;;;;;;;4916699;29;19982;-83
2022/03/26 15:23:58;;;;;;;;;;;;;;;;;;4930340;29;20356;-84
2022/03/26 15:26:29;;;;;;;;;;;;;;;;;;4931941;29;19923;-84
2022/03/26 15:28:55;;;;;;;;;;;;;;;;;;4916477;29;19923;-85
2022/03/26 15:31:21;;;;;;;;;;;;;;;;;;4933083;29;20378;-85
2022/03/26 15:33:50;;;;;;;;;;;;;;;;;;4914984;29;19954;-84